createdAt,value
2019-04-10T00:02:35.048Z,94.50
2019-04-10T00:05:21.322Z,94.50
2019-04-10T00:08:06.190Z,94.40
2019-04-10T00:10:50.413Z,94.50
2019-04-10T00:13:34.819Z,94.70
2019-04-10T00:16:22.361Z,94.80
2019-04-10T00:19:06.566Z,94.90
2019-04-10T00:21:50.184Z,95.00
2019-04-10T00:24:38.491Z,94.90
2019-04-10T00:27:22.970Z,94.90
2019-04-10T00:30:07.432Z,95.00
2019-04-10T00:32:52.303Z,95.40
2019-04-10T00:35:39.338Z,95.20
2019-04-10T00:38:24.061Z,95.10
2019-04-10T00:41:10.105Z,95.20
2019-04-10T00:43:55.152Z,95.30
2019-04-10T00:46:40.464Z,95.50
2019-04-10T00:49:24.755Z,95.30
2019-04-10T00:52:09.875Z,95.60
2019-04-10T00:54:55.369Z,95.30
2019-04-10T00:57:41.352Z,95.30
2019-04-10T01:00:14.838Z,95.20
2019-04-10T01:03:15.659Z,95.50
2019-04-10T01:05:59.675Z,95.30
2019-04-10T01:08:44.761Z,95.20
2019-04-10T01:11:30.745Z,95.90
2019-04-10T01:14:15.857Z,95.20
2019-04-10T01:17:00.000Z,96.20
2019-04-10T01:19:44.040Z,95.60
2019-04-10T01:22:27.952Z,95.60
2019-04-10T01:25:13.010Z,95.50
2019-04-10T01:27:56.870Z,95.70
2019-04-10T01:30:42.307Z,95.60
2019-04-10T01:33:26.433Z,95.60
2019-04-10T01:36:11.021Z,95.90
2019-04-10T01:38:43.812Z,96.20
2019-04-10T01:41:42.580Z,96.30
2019-04-10T01:44:28.877Z,95.90
2019-04-10T01:47:13.511Z,95.80
2019-04-10T01:49:57.986Z,96.20
2019-04-10T01:52:45.441Z,95.80
2019-04-10T01:55:31.406Z,95.90
2019-04-10T02:04:09.263Z,96.30
2019-04-10T02:06:53.779Z,96.30
2019-04-10T02:09:27.527Z,96.20
2019-04-10T02:12:23.850Z,96.20
2019-04-10T02:15:11.860Z,96.00
2019-04-10T02:17:55.126Z,96.20
2019-04-10T02:20:39.229Z,97.20
2019-04-10T02:23:24.678Z,96.10
2019-04-10T02:26:09.293Z,96.10
2019-04-10T02:28:55.500Z,96.10
2019-04-10T02:31:39.583Z,96.20
2019-04-10T02:34:24.964Z,97.20
2019-04-10T02:37:10.845Z,96.40
2019-04-10T02:39:58.870Z,96.30
2019-04-10T02:42:41.068Z,96.40
2019-04-10T02:45:16.891Z,96.50
2019-04-10T02:48:12.911Z,96.70
2019-04-10T02:50:57.562Z,96.40
2019-04-10T02:53:43.803Z,96.40
2019-04-10T02:56:28.537Z,96.50
2019-04-10T02:59:13.263Z,96.50
2019-04-10T03:02:00.257Z,97.30
2019-04-10T03:04:44.397Z,97.10
2019-04-10T03:07:28.748Z,96.60
2019-04-10T03:10:24.085Z,96.60
2019-04-10T03:12:58.908Z,96.70
2019-04-10T03:15:44.290Z,96.80
2019-04-10T03:18:28.566Z,96.90
2019-04-10T03:21:13.625Z,96.70
2019-04-10T03:23:59.975Z,96.70
2019-04-10T03:26:33.975Z,96.70
2019-04-10T03:29:31.634Z,96.70
2019-04-10T03:32:38.379Z,97.10
2019-04-10T03:38:27.319Z,97.00
2019-04-10T03:41:12.261Z,96.70
2019-04-10T03:43:59.161Z,96.70
2019-04-10T03:46:44.760Z,96.80
2019-04-10T03:49:29.624Z,96.70
2019-04-10T03:52:15.311Z,96.90
2019-04-10T03:54:59.116Z,96.80
2019-04-10T03:57:44.889Z,96.80
2019-04-10T04:00:28.672Z,97.80
2019-04-10T04:03:13.829Z,97.00
2019-04-10T04:05:57.473Z,97.00
2019-04-10T04:08:45.921Z,96.90
2019-04-10T04:11:31.488Z,96.90
2019-04-10T04:14:15.245Z,97.10
2019-04-10T04:16:59.756Z,97.10
2019-04-10T04:19:46.254Z,97.50
2019-04-10T04:22:30.625Z,97.60
2019-04-10T04:25:14.840Z,97.90
2019-04-10T04:27:58.991Z,97.50
2019-04-10T04:30:45.622Z,97.50
2019-04-10T04:33:32.426Z,97.50
2019-04-10T04:36:16.073Z,97.30
2019-04-10T04:38:49.158Z,97.40
2019-04-10T04:41:45.889Z,97.90
2019-04-10T04:44:20.144Z,97.50
2019-04-10T04:47:18.180Z,97.50
2019-04-10T04:50:03.579Z,97.50
2019-04-10T04:52:47.385Z,97.60
2019-04-10T04:55:31.851Z,97.50
2019-04-10T04:58:16.093Z,98.70
2019-04-10T05:01:02.027Z,98.30
2019-04-10T05:03:46.381Z,98.00
2019-04-10T05:06:30.846Z,97.80
2019-04-10T05:09:27.438Z,97.40
2019-04-10T05:12:00.690Z,98.10
2019-04-10T05:14:46.152Z,97.30
2019-04-10T05:17:33.068Z,97.70
2019-04-10T05:20:17.536Z,97.30
2019-04-10T05:23:02.078Z,97.30
2019-04-10T05:25:45.692Z,97.30
2019-04-10T05:28:30.982Z,97.10
2019-04-10T05:31:17.067Z,97.00
2019-04-10T05:34:01.638Z,96.90
2019-04-10T05:36:51.224Z,97.30
2019-04-10T05:39:51.961Z,96.90
2019-04-10T05:42:35.576Z,96.80
2019-04-10T05:45:21.135Z,96.80
2019-04-10T05:48:06.824Z,96.70
2019-04-10T05:50:57.716Z,96.60
2019-04-10T05:53:37.592Z,96.50
2019-04-10T05:56:22.501Z,96.30
2019-04-10T06:01:50.629Z,96.50
2019-04-10T06:07:23.651Z,96.50
2019-04-10T06:10:10.007Z,96.60
2019-04-10T06:12:53.403Z,96.60
2019-04-10T06:15:39.143Z,96.40
2019-04-10T06:18:24.140Z,96.20
2019-04-10T06:21:10.402Z,97.60
2019-04-10T06:24:00.490Z,96.40
2019-04-10T06:26:45.868Z,96.50
2019-04-10T06:29:30.884Z,95.90
2019-04-10T06:32:14.736Z,95.70
2019-04-10T06:34:48.203Z,95.40
2019-04-10T06:37:32.614Z,95.90
2019-04-10T06:40:21.266Z,95.30
2019-04-10T06:43:03.133Z,95.10
2019-04-10T06:45:48.230Z,95.10
2019-04-10T06:48:20.613Z,95.10
2019-04-10T06:51:06.125Z,94.60
2019-04-10T06:54:00.819Z,94.00
2019-04-10T06:59:21.222Z,93.70
2019-04-10T07:02:16.653Z,94.40
2019-04-10T07:04:55.959Z,93.70
2019-04-10T07:07:49.499Z,93.10
2019-04-10T07:10:31.704Z,93.40
2019-04-10T07:13:11.814Z,93.80
2019-04-10T07:15:58.472Z,95.60
2019-04-10T07:18:45.901Z,93.10
2019-04-10T07:21:30.773Z,93.80
2019-04-10T07:24:15.431Z,92.10
2019-04-10T07:27:03.303Z,91.00
2019-04-10T07:29:50.726Z,91.30
2019-04-10T07:32:31.627Z,89.80
2019-04-10T07:35:19.513Z,90.20
2019-04-10T07:38:02.424Z,90.10
2019-04-10T07:40:47.051Z,90.00
2019-04-10T07:43:32.141Z,88.60
2019-04-10T07:46:17.313Z,90.40
2019-04-10T07:49:02.861Z,90.00
2019-04-10T07:51:48.722Z,87.10
2019-04-10T07:54:33.133Z,85.80
2019-04-10T07:57:17.935Z,87.50
2019-04-10T08:00:01.671Z,87.50
2019-04-10T08:02:49.052Z,86.90
2019-04-10T08:05:33.373Z,87.20
2019-04-10T08:08:17.900Z,84.60
2019-04-10T08:11:01.866Z,83.20
2019-04-10T08:13:45.565Z,86.90
2019-04-10T08:16:30.784Z,83.20
2019-04-10T08:19:18.880Z,82.00
2019-04-10T08:22:03.630Z,82.90
2019-04-10T08:24:47.616Z,81.80
2019-04-10T08:27:32.045Z,84.30
2019-04-10T08:30:17.527Z,82.10
2019-04-10T08:33:02.772Z,83.80
2019-04-10T08:35:47.448Z,84.40
2019-04-10T08:38:32.441Z,82.20
2019-04-10T08:41:17.237Z,77.60
2019-04-10T08:44:02.232Z,80.70
2019-04-10T08:46:46.342Z,78.60
2019-04-10T08:49:32.645Z,75.00
2019-04-10T08:52:17.059Z,72.50
2019-04-10T08:55:01.925Z,75.70
2019-04-10T08:57:46.291Z,66.80
2019-04-10T09:00:30.907Z,66.80
2019-04-10T09:03:16.930Z,69.60
2019-04-10T09:06:01.034Z,69.60
2019-04-10T09:08:33.394Z,68.60
2019-04-10T09:11:26.494Z,71.30
2019-04-10T09:14:29.710Z,71.10
2019-04-10T09:17:02.811Z,69.80
2019-04-10T09:20:00.643Z,59.80
2019-04-10T09:23:10.340Z,62.20
2019-04-10T09:25:31.212Z,73.50
2019-04-10T09:28:16.100Z,69.30
2019-04-10T09:30:59.780Z,69.90
2019-04-10T09:33:51.770Z,70.10
2019-04-10T09:36:37.520Z,59.80
2019-04-10T09:39:23.262Z,61.90
2019-04-10T09:42:07.083Z,59.20
2019-04-10T09:44:52.711Z,59.20
2019-04-10T09:47:36.929Z,60.20
2019-04-10T09:50:23.448Z,64.60
2019-04-10T09:52:56.885Z,64.80
2019-04-10T09:55:42.577Z,64.20
2019-04-10T09:58:27.304Z,64.40
2019-04-10T10:01:14.711Z,58.40
2019-04-10T10:03:59.224Z,56.30
2019-04-10T10:06:43.270Z,53.90
2019-04-10T10:09:29.154Z,54.20
2019-04-10T10:12:14.409Z,52.90
2019-04-10T10:14:58.370Z,52.80
2019-04-10T10:17:42.820Z,53.30
2019-04-10T10:20:29.676Z,52.90
2019-04-10T10:23:15.810Z,54.70
2019-04-10T10:28:50.828Z,54.00
2019-04-10T10:31:36.023Z,51.00
2019-04-10T10:34:22.595Z,55.60
2019-04-10T10:37:08.405Z,53.40
2019-04-10T10:39:52.878Z,55.30
2019-04-10T10:42:38.593Z,54.20
2019-04-10T10:45:22.908Z,52.50
2019-04-10T10:48:08.638Z,51.50
2019-04-10T10:50:53.369Z,53.80
2019-04-10T10:53:38.602Z,54.70
2019-04-10T10:56:24.580Z,55.30
2019-04-10T10:59:09.243Z,52.10
2019-04-10T11:01:54.475Z,50.70
2019-04-10T11:04:38.302Z,50.00
2019-04-10T11:07:22.799Z,45.60
2019-04-10T11:16:33.967Z,48.30
2019-04-10T11:19:19.801Z,48.20
2019-04-10T11:22:07.356Z,48.30
2019-04-10T11:24:51.803Z,50.30
2019-04-10T11:27:36.211Z,48.40
2019-04-10T11:30:20.664Z,47.10
2019-04-10T11:33:06.203Z,44.80
2019-04-10T11:35:51.519Z,45.50
2019-04-10T11:38:37.553Z,45.40
2019-04-10T11:41:26.117Z,44.70
2019-04-10T11:47:05.589Z,45.90
2019-04-10T11:49:49.693Z,46.60
2019-04-10T11:52:41.834Z,48.60
2019-04-10T11:55:25.820Z,49.20
2019-04-10T11:58:07.964Z,50.90
2019-04-10T12:00:56.395Z,51.40
2019-04-10T12:03:44.239Z,51.10
2019-04-10T12:06:29.725Z,50.70
2019-04-10T12:12:15.059Z,51.20
2019-04-10T12:15:01.905Z,52.60
2019-04-10T12:17:44.508Z,52.50
2019-04-10T12:20:29.209Z,52.50
2019-04-10T12:23:13.600Z,55.90
2019-04-10T12:25:59.045Z,51.80
2019-04-10T12:28:44.381Z,49.30
2019-04-10T12:31:30.186Z,48.90
2019-04-10T12:34:15.257Z,49.00
2019-04-10T12:37:02.861Z,49.50
2019-04-10T12:39:49.481Z,50.30
2019-04-10T12:42:34.473Z,50.70
2019-04-10T12:45:20.846Z,51.80
2019-04-10T12:48:06.153Z,51.70
2019-04-10T12:50:50.245Z,53.50
2019-04-10T12:53:34.316Z,53.20
2019-04-10T12:56:18.895Z,53.70
2019-04-10T12:59:05.395Z,55.00
2019-04-10T13:01:50.921Z,56.30
2019-04-10T13:04:36.582Z,54.60
2019-04-10T13:07:21.319Z,54.50
2019-04-10T13:09:54.679Z,55.30
2019-04-10T13:15:48.144Z,57.10
2019-04-10T13:18:32.412Z,54.30
2019-04-10T13:21:17.971Z,52.80
2019-04-10T13:24:03.569Z,53.50
2019-04-10T13:26:48.414Z,53.30
2019-04-10T13:29:33.190Z,54.40
2019-04-10T13:32:18.208Z,56.00
2019-04-10T13:35:01.854Z,58.40
2019-04-10T13:37:46.482Z,57.00
2019-04-10T13:40:32.022Z,54.70
2019-04-10T13:43:05.375Z,53.60
2019-04-10T13:45:54.272Z,54.60
2019-04-10T13:48:35.559Z,54.40
2019-04-10T13:51:32.038Z,53.70
2019-04-10T13:54:18.847Z,55.80
2019-04-10T13:57:03.520Z,57.10
2019-04-10T13:59:49.120Z,55.60
2019-04-10T14:02:35.588Z,54.20
2019-04-10T14:08:06.662Z,55.00
2019-04-10T14:10:50.900Z,56.60
2019-04-10T14:13:35.855Z,54.20
2019-04-10T14:16:20.327Z,54.50
2019-04-10T14:19:06.216Z,54.00
2019-04-10T14:21:55.469Z,55.00
2019-04-10T14:24:53.485Z,59.20
2019-04-10T14:27:38.399Z,55.70
2019-04-10T14:33:28.196Z,57.20
2019-04-10T14:36:13.864Z,60.00
2019-04-10T14:39:08.640Z,59.50
2019-04-10T14:41:47.236Z,59.20
2019-04-10T14:44:32.606Z,56.70
2019-04-10T14:47:17.302Z,56.40
2019-04-10T14:53:11.739Z,57.00
2019-04-10T14:55:55.835Z,57.30
2019-04-10T14:58:42.354Z,57.30
2019-04-10T15:01:26.201Z,56.30
2019-04-10T15:04:15.063Z,56.40
2019-04-10T15:07:12.266Z,54.30
2019-04-10T15:09:56.821Z,53.50
2019-04-10T15:12:41.616Z,55.20
2019-04-10T15:15:26.009Z,55.80
2019-04-10T15:21:12.308Z,55.70
2019-04-10T15:23:57.302Z,57.50
2019-04-10T15:26:41.118Z,57.50
2019-04-10T15:29:24.825Z,57.00
2019-04-10T15:32:10.645Z,56.80
2019-04-10T15:34:55.824Z,65.60
2019-04-10T15:37:41.533Z,55.70
2019-04-10T15:40:26.133Z,57.20
2019-04-10T15:43:10.876Z,55.00
2019-04-10T15:45:54.837Z,55.80
2019-04-10T15:48:39.217Z,56.00
2019-04-10T15:51:24.449Z,57.10
2019-04-10T15:54:14.458Z,55.70
2019-04-10T15:57:02.762Z,56.10
2019-04-10T15:59:48.334Z,56.00
2019-04-10T16:02:33.416Z,55.70
2019-04-10T16:05:17.489Z,56.20
2019-04-10T16:08:01.445Z,56.20
2019-04-10T16:11:05.615Z,56.20
2019-04-10T16:13:53.363Z,55.00
2019-04-10T16:16:56.998Z,59.70
2019-04-10T16:20:00.313Z,61.50
2019-04-10T16:23:04.230Z,58.10
2019-04-10T16:25:50.782Z,59.00
2019-04-10T16:28:35.523Z,58.50
2019-04-10T16:31:23.610Z,60.90
2019-04-10T16:34:11.563Z,58.80
2019-04-10T16:36:57.766Z,59.20
2019-04-10T16:39:42.449Z,59.70
2019-04-10T16:42:27.118Z,58.90
2019-04-10T16:45:11.414Z,59.50
2019-04-10T16:47:56.443Z,59.80
2019-04-10T16:50:30.018Z,61.60
2019-04-10T16:53:27.953Z,60.70
2019-04-10T16:56:11.624Z,61.00
2019-04-10T16:58:56.362Z,60.00
2019-04-10T17:01:40.299Z,61.40
2019-04-10T17:04:25.776Z,65.30
2019-04-10T17:07:13.466Z,65.40
2019-04-10T17:10:12.822Z,66.20
2019-04-10T17:12:53.904Z,66.90
2019-04-10T17:16:05.066Z,67.60
2019-04-10T17:19:01.082Z,67.40
2019-04-10T17:21:46.636Z,68.60
2019-04-10T17:24:33.393Z,67.10
2019-04-10T17:27:17.955Z,70.10
2019-04-10T17:30:01.541Z,69.10
2019-04-10T17:32:48.649Z,68.50
2019-04-10T17:35:33.649Z,69.50
2019-04-10T17:38:20.420Z,69.10
2019-04-10T17:41:04.941Z,69.00
2019-04-10T17:43:49.542Z,69.50
2019-04-10T17:46:33.923Z,69.30
2019-04-10T17:49:19.299Z,68.30
2019-04-10T17:52:04.480Z,70.70
2019-04-10T17:54:49.180Z,70.10
2019-04-10T17:57:38.124Z,70.80
2019-04-10T18:03:23.320Z,72.90
2019-04-10T18:06:11.529Z,73.40
2019-04-10T18:08:59.142Z,77.90
2019-04-10T18:11:43.591Z,76.50
2019-04-10T18:14:15.938Z,77.20
2019-04-10T18:17:06.405Z,79.40
2019-04-10T18:19:52.499Z,80.50
2019-04-10T18:22:36.624Z,81.80
2019-04-10T18:28:05.824Z,81.90
2019-04-10T18:30:50.203Z,82.70
2019-04-10T18:33:34.395Z,85.40
2019-04-10T18:36:19.547Z,84.10
2019-04-10T18:39:04.594Z,85.80
2019-04-10T18:41:50.241Z,85.00
2019-04-10T18:44:33.919Z,86.10
2019-04-10T18:47:18.709Z,86.50
2019-04-10T18:50:04.419Z,86.70
2019-04-10T18:52:48.227Z,86.90
2019-04-10T18:55:32.747Z,85.70
2019-04-10T18:58:19.291Z,87.20
2019-04-10T19:01:23.090Z,86.80
2019-04-10T19:07:15.364Z,86.90
2019-04-10T19:09:59.898Z,86.60
2019-04-10T19:12:43.955Z,88.00
2019-04-10T19:15:16.968Z,86.40
2019-04-10T19:18:11.142Z,88.90
2019-04-10T19:20:56.591Z,87.00
2019-04-10T19:23:41.718Z,87.20
2019-04-10T19:26:26.007Z,89.10
2019-04-10T19:29:10.459Z,89.60
2019-04-10T19:31:58.270Z,88.50
2019-04-10T19:34:42.311Z,89.40
2019-04-10T19:37:26.827Z,88.80
2019-04-10T19:40:11.202Z,88.50
2019-04-10T19:42:55.842Z,88.40
2019-04-10T19:45:39.771Z,90.60
2019-04-10T19:48:23.786Z,89.60
2019-04-10T19:51:08.225Z,90.10
2019-04-10T19:53:53.260Z,90.30
2019-04-10T19:56:37.412Z,90.50
2019-04-10T19:59:21.246Z,90.10
2019-04-10T20:02:06.659Z,91.50
2019-04-10T20:04:52.764Z,90.90
2019-04-10T20:07:37.505Z,90.40
2019-04-10T20:10:21.976Z,90.50
2019-04-10T20:13:06.928Z,91.20
2019-04-10T20:15:50.982Z,91.10
2019-04-10T20:18:35.614Z,91.60
2019-04-10T20:21:19.658Z,91.40
2019-04-10T20:24:04.808Z,92.00
2019-04-10T20:26:49.579Z,92.00
2019-04-10T20:29:33.791Z,92.80
2019-04-10T20:32:17.712Z,91.60
2019-04-10T20:35:02.390Z,91.50
2019-04-10T20:37:34.687Z,92.20
2019-04-10T20:40:20.639Z,92.90
2019-04-10T20:43:04.827Z,93.60
2019-04-10T20:45:49.673Z,92.40
2019-04-10T20:48:33.381Z,91.80
2019-04-10T20:51:17.105Z,93.50
2019-04-10T20:54:01.165Z,93.10
2019-04-10T20:56:44.646Z,92.90
2019-04-10T20:59:28.656Z,92.80
2019-04-10T21:02:13.825Z,93.30
2019-04-10T21:05:04.951Z,93.60
2019-04-10T21:07:44.289Z,93.00
2019-04-10T21:10:29.006Z,93.10
2019-04-10T21:13:13.445Z,92.70
2019-04-10T21:15:58.417Z,92.70
2019-04-10T21:18:44.201Z,92.60
2019-04-10T21:21:28.787Z,93.40
2019-04-10T21:24:14.008Z,93.20
2019-04-10T21:26:59.273Z,93.30
2019-04-10T21:30:03.807Z,93.50
2019-04-10T21:35:54.955Z,94.00
2019-04-10T21:38:40.504Z,94.00
2019-04-10T21:41:24.835Z,93.80
2019-04-10T21:44:10.240Z,94.00
2019-04-10T21:46:55.538Z,93.60
2019-04-10T21:49:40.012Z,93.80
2019-04-10T21:52:27.130Z,93.90
2019-04-10T21:55:12.914Z,93.70
2019-04-10T21:57:57.602Z,93.50
2019-04-10T22:01:01.413Z,93.50
2019-04-10T22:03:47.193Z,93.50
2019-04-10T22:06:51.917Z,93.50
2019-04-10T22:09:55.586Z,93.80
2019-04-10T22:12:45.444Z,94.30
2019-04-10T22:15:45.046Z,94.20
2019-04-10T22:18:29.614Z,94.70
2019-04-10T22:21:14.494Z,94.70
2019-04-10T22:23:58.886Z,94.70
2019-04-10T22:26:44.477Z,95.10
2019-04-10T22:29:28.783Z,95.60
2019-04-10T22:32:14.045Z,95.70
2019-04-10T22:34:59.051Z,95.60
2019-04-10T22:37:44.077Z,96.20
2019-04-10T22:40:29.145Z,96.50
2019-04-10T22:43:13.784Z,96.00
2019-04-10T22:45:58.036Z,96.80
2019-04-10T22:48:43.593Z,97.10
2019-04-10T22:51:29.033Z,97.30
2019-04-10T22:54:14.558Z,97.80
2019-04-10T22:57:00.378Z,97.70
2019-04-10T22:59:44.061Z,97.90
2019-04-10T23:02:29.911Z,97.90
2019-04-10T23:05:13.650Z,97.90
2019-04-10T23:07:58.931Z,98.00
2019-04-10T23:10:43.543Z,97.70
2019-04-10T23:13:27.547Z,98.00
2019-04-10T23:16:14.159Z,97.80
2019-04-10T23:18:56.526Z,98.10
2019-04-10T23:21:40.863Z,98.20
2019-04-10T23:24:25.017Z,98.90
2019-04-10T23:27:09.364Z,98.10
2019-04-10T23:29:53.272Z,98.40
2019-04-10T23:32:38.020Z,98.10
2019-04-10T23:35:22.299Z,98.10
2019-04-10T23:38:07.123Z,98.20
2019-04-10T23:40:51.527Z,98.70
2019-04-10T23:43:37.790Z,98.50
2019-04-10T23:46:22.261Z,99.20
2019-04-10T23:49:05.913Z,98.90
2019-04-10T23:54:33.769Z,99.90
2019-04-10T23:57:18.966Z,99.50
